Aviation Digital Data Service (ADDS)

Output produced by METARs form (1734 UTC 27 May 2017)
found at http://www.aviationweather.gov/adds/metars/
 
GVAC 271700Z 05016KT 9999 BKN014 27/19 Q1015 NOSIG
TAF GVAC 271700Z 2718/2824 05015KT 9999 SCT014 
     TEMPO 2800/2806 04010KT
       
GVBA 271700Z 03015KT 9999 BKN015 26/19 Q1015 NOSIG
TAF GVBA 271100Z 2712/2818 03018KT 9999 SCT015 
     BECMG 2720/2722 02012KT
       
GVSV 271700Z 06025G35KT 9999 FEW020 28/19 Q1015 NOSIG
TAF GVSV 271700Z 2718/2824 06022KT 9999 FEW020 
     TEMPO 2718/2724 06022G32KT 
     PROB30 
     TEMPO 2802/2808 06016KT